createdAt,value
2019-03-30T00:00:35.462Z,61.10
2019-03-30T00:03:24.179Z,61.80
2019-03-30T00:06:12.819Z,60.80
2019-03-30T00:09:01.309Z,60.70
2019-03-30T00:11:49.859Z,60.80
2019-03-30T00:14:37.966Z,60.80
2019-03-30T00:17:26.311Z,60.70
2019-03-30T00:20:15.047Z,60.70
2019-03-30T00:23:03.537Z,60.80
2019-03-30T00:25:52.071Z,60.90
2019-03-30T00:28:40.509Z,61.00
2019-03-30T00:31:29.320Z,61.00
2019-03-30T00:34:17.781Z,61.00
2019-03-30T00:37:06.603Z,60.90
2019-03-30T00:39:55.603Z,61.10
2019-03-30T00:42:44.083Z,61.00
2019-03-30T00:45:33.347Z,61.10
2019-03-30T00:48:21.819Z,61.30
2019-03-30T00:51:10.439Z,61.20
2019-03-30T00:53:58.648Z,61.10
2019-03-30T00:56:47.531Z,61.30
2019-03-30T00:59:36.780Z,61.30
2019-03-30T01:02:25.315Z,61.30
2019-03-30T01:05:13.714Z,61.30
2019-03-30T01:08:03.081Z,61.40
2019-03-30T01:10:51.303Z,61.30
2019-03-30T01:13:40.619Z,61.30
2019-03-30T01:16:29.445Z,61.50
2019-03-30T01:19:17.596Z,61.60
2019-03-30T01:21:48.575Z,61.40
2019-03-30T01:24:19.273Z,61.50
2019-03-30T01:26:50.009Z,61.50
2019-03-30T01:29:20.635Z,61.60
2019-03-30T01:31:51.293Z,61.50
2019-03-30T01:34:39.694Z,61.50
2019-03-30T01:37:28.145Z,61.60
2019-03-30T01:40:17.363Z,61.70
2019-03-30T01:43:05.967Z,61.70
2019-03-30T01:45:54.425Z,61.70
2019-03-30T01:48:43.110Z,61.70
2019-03-30T01:51:32.099Z,61.80
2019-03-30T01:54:21.045Z,61.80
2019-03-30T01:57:09.851Z,61.80
2019-03-30T01:59:58.381Z,61.80
2019-03-30T02:02:47.164Z,61.80
2019-03-30T02:05:35.717Z,61.70
2019-03-30T02:08:23.946Z,61.70
2019-03-30T02:11:12.813Z,61.60
2019-03-30T02:14:01.341Z,61.70
2019-03-30T02:16:49.715Z,61.70
2019-03-30T02:19:39.121Z,61.70
2019-03-30T02:22:27.391Z,61.70
2019-03-30T02:25:16.395Z,61.70
2019-03-30T02:28:07.127Z,61.70
2019-03-30T02:30:55.664Z,61.80
2019-03-30T02:33:44.045Z,61.80
2019-03-30T02:36:32.802Z,61.90
2019-03-30T02:39:21.425Z,61.90
2019-03-30T02:42:09.555Z,61.90
2019-03-30T02:44:57.779Z,61.90
2019-03-30T02:47:45.923Z,61.80
2019-03-30T02:50:48.133Z,61.80
2019-03-30T02:53:24.334Z,61.80
2019-03-30T02:56:12.669Z,61.90
2019-03-30T02:59:02.100Z,61.90
2019-03-30T03:01:50.591Z,61.80
2019-03-30T03:04:39.448Z,61.90
2019-03-30T03:07:27.688Z,61.90
2019-03-30T03:10:16.750Z,61.90
2019-03-30T03:13:05.208Z,62.00
2019-03-30T03:15:53.521Z,62.00
2019-03-30T03:18:42.050Z,62.00
2019-03-30T03:21:30.555Z,62.00
2019-03-30T03:24:19.296Z,62.00
2019-03-30T03:27:07.782Z,62.40
2019-03-30T03:29:56.302Z,62.00
2019-03-30T03:32:42.230Z,62.10
2019-03-30T03:35:30.455Z,62.00
2019-03-30T03:38:18.419Z,62.10
2019-03-30T03:41:07.444Z,62.00
2019-03-30T03:43:56.248Z,62.10
2019-03-30T03:46:44.815Z,62.10
2019-03-30T03:49:33.134Z,62.10
2019-03-30T03:52:22.062Z,62.10
2019-03-30T03:55:10.599Z,62.10
2019-03-30T03:58:01.105Z,62.00
2019-03-30T04:00:51.285Z,62.00
2019-03-30T04:03:42.162Z,61.90
2019-03-30T04:06:33.505Z,61.40
2019-03-30T04:09:23.759Z,61.70
2019-03-30T04:12:12.946Z,61.70
2019-03-30T04:15:03.471Z,62.00
2019-03-30T04:17:51.754Z,61.90
2019-03-30T04:20:40.063Z,61.90
2019-03-30T04:23:29.125Z,61.80
2019-03-30T04:26:17.802Z,61.70
2019-03-30T04:29:06.241Z,61.50
2019-03-30T04:31:54.412Z,61.30
2019-03-30T04:34:42.990Z,60.90
2019-03-30T04:37:31.640Z,60.70
2019-03-30T04:40:20.249Z,60.50
2019-03-30T04:43:08.717Z,60.20
2019-03-30T04:45:57.529Z,60.00
2019-03-30T04:48:46.487Z,59.90
2019-03-30T04:51:34.913Z,59.80
2019-03-30T04:54:24.828Z,59.60
2019-03-30T04:57:13.455Z,59.50
2019-03-30T05:00:02.839Z,59.40
2019-03-30T05:02:51.103Z,59.30
2019-03-30T05:05:42.790Z,59.20
2019-03-30T05:08:29.247Z,59.00
2019-03-30T05:11:17.599Z,58.90
2019-03-30T05:14:05.839Z,58.90
2019-03-30T05:16:54.423Z,58.80
2019-03-30T05:19:43.093Z,58.70
2019-03-30T05:22:33.493Z,58.70
2019-03-30T05:25:21.661Z,58.70
2019-03-30T05:28:10.736Z,58.60
2019-03-30T05:30:59.761Z,58.60
2019-03-30T05:33:48.751Z,58.60
2019-03-30T05:36:37.012Z,58.60
2019-03-30T05:39:25.425Z,58.50
2019-03-30T05:42:13.774Z,58.80
2019-03-30T05:45:02.371Z,58.40
2019-03-30T05:47:50.999Z,58.40
2019-03-30T05:50:39.522Z,58.30
2019-03-30T05:53:28.672Z,58.30
2019-03-30T05:56:17.268Z,58.30
2019-03-30T05:59:05.498Z,58.30
2019-03-30T06:01:53.678Z,58.20
2019-03-30T06:04:42.872Z,58.20
2019-03-30T06:07:31.792Z,58.20
2019-03-30T06:10:20.847Z,58.10
2019-03-30T06:13:09.101Z,58.10
2019-03-30T06:15:57.582Z,58.00
2019-03-30T06:18:46.514Z,57.90
2019-03-30T06:21:35.060Z,57.80
2019-03-30T06:24:23.227Z,57.70
2019-03-30T06:27:12.335Z,57.60
2019-03-30T06:30:22.063Z,57.70
2019-03-30T06:33:10.966Z,57.80
2019-03-30T06:35:59.310Z,57.80
2019-03-30T06:38:48.273Z,57.70
2019-03-30T06:41:37.950Z,57.70
2019-03-30T06:44:26.174Z,57.50
2019-03-30T06:47:14.880Z,57.40
2019-03-30T06:50:05.239Z,57.40
2019-03-30T06:52:58.266Z,57.30
2019-03-30T06:55:43.941Z,57.20
2019-03-30T06:58:32.205Z,57.10
2019-03-30T07:01:21.140Z,56.90
2019-03-30T07:04:11.261Z,56.90
2019-03-30T07:07:00.292Z,56.60
2019-03-30T07:09:51.678Z,56.70
2019-03-30T07:12:42.446Z,56.60
2019-03-30T07:15:33.293Z,56.60
2019-03-30T07:18:22.013Z,56.50
2019-03-30T07:21:10.368Z,56.40
2019-03-30T07:23:58.734Z,56.40
2019-03-30T07:26:47.489Z,56.50
2019-03-30T07:29:35.559Z,56.60
2019-03-30T07:32:23.757Z,56.60
2019-03-30T07:34:54.918Z,56.60
2019-03-30T07:37:43.303Z,56.50
2019-03-30T07:40:34.032Z,56.40
2019-03-30T07:43:22.434Z,56.20
2019-03-30T07:46:10.534Z,56.50
2019-03-30T07:48:58.891Z,55.70
2019-03-30T07:51:47.327Z,55.40
2019-03-30T07:54:35.529Z,55.10
2019-03-30T07:57:24.099Z,54.90
2019-03-30T08:00:13.313Z,54.70
2019-03-30T08:03:01.721Z,54.60
2019-03-30T08:05:50.230Z,54.50
2019-03-30T08:08:38.468Z,54.40
2019-03-30T08:11:26.855Z,54.20
2019-03-30T08:14:15.170Z,54.90
2019-03-30T08:17:03.697Z,54.90
2019-03-30T08:19:51.916Z,54.70
2019-03-30T08:22:40.795Z,54.60
2019-03-30T08:25:29.239Z,54.40
2019-03-30T08:28:17.977Z,54.40
2019-03-30T08:31:06.349Z,54.20
2019-03-30T08:33:54.899Z,54.00
2019-03-30T08:36:43.280Z,53.60
2019-03-30T08:39:32.149Z,53.40
2019-03-30T08:42:21.307Z,53.40
2019-03-30T08:45:11.182Z,53.20
2019-03-30T08:47:59.278Z,53.40
2019-03-30T08:50:47.477Z,53.30
2019-03-30T08:53:36.146Z,53.20
2019-03-30T08:56:27.838Z,53.20
2019-03-30T08:59:14.918Z,53.10
2019-03-30T09:02:03.693Z,53.00
2019-03-30T09:04:52.211Z,53.00
2019-03-30T09:07:40.723Z,53.10
2019-03-30T09:10:29.539Z,53.00
2019-03-30T09:13:18.439Z,53.30
2019-03-30T09:16:07.025Z,53.50
2019-03-30T09:18:55.789Z,54.40
2019-03-30T09:21:44.443Z,53.60
2019-03-30T09:24:32.785Z,53.40
2019-03-30T09:27:21.608Z,53.20
2019-03-30T09:30:11.214Z,53.10
2019-03-30T09:32:59.770Z,52.80
2019-03-30T09:35:48.051Z,52.50
2019-03-30T09:38:36.975Z,52.70
2019-03-30T09:41:25.633Z,52.70
2019-03-30T09:44:14.260Z,52.60
2019-03-30T09:47:02.406Z,52.40
2019-03-30T09:49:50.926Z,52.40
2019-03-30T09:52:39.361Z,52.40
2019-03-30T09:55:27.742Z,52.30
2019-03-30T09:58:15.894Z,51.90
2019-03-30T10:01:05.441Z,52.00
2019-03-30T10:03:54.045Z,52.00
2019-03-30T10:06:42.919Z,51.80
2019-03-30T10:09:31.483Z,50.80
2019-03-30T10:12:20.115Z,51.60
2019-03-30T10:15:09.702Z,51.60
2019-03-30T10:17:58.683Z,51.40
2019-03-30T10:20:46.958Z,51.30
2019-03-30T10:23:35.163Z,51.40
2019-03-30T10:26:23.767Z,51.40
2019-03-30T10:29:12.313Z,51.40
2019-03-30T10:32:00.683Z,51.30
2019-03-30T10:34:49.135Z,51.40
2019-03-30T10:37:37.851Z,51.40
2019-03-30T10:40:26.020Z,51.40
2019-03-30T10:43:15.139Z,51.40
2019-03-30T10:46:03.524Z,51.40
2019-03-30T10:48:51.797Z,51.70
2019-03-30T10:51:40.185Z,51.50
2019-03-30T10:54:28.386Z,51.40
2019-03-30T10:57:16.817Z,51.30
2019-03-30T11:00:08.467Z,51.30
2019-03-30T11:02:56.800Z,51.30
2019-03-30T11:05:45.413Z,51.20
2019-03-30T11:08:33.632Z,51.10
2019-03-30T11:11:21.822Z,51.60
2019-03-30T11:14:10.558Z,51.50
2019-03-30T11:16:58.651Z,51.60
2019-03-30T11:19:46.904Z,51.40
2019-03-30T11:22:35.507Z,51.50
2019-03-30T11:25:23.942Z,51.40
2019-03-30T11:28:12.984Z,51.40
2019-03-30T11:31:05.104Z,51.40
2019-03-30T11:33:52.769Z,51.50
2019-03-30T11:36:41.756Z,51.40
2019-03-30T11:39:31.124Z,51.60
2019-03-30T11:42:19.683Z,51.60
2019-03-30T11:45:10.309Z,51.70
2019-03-30T11:47:58.791Z,51.80
2019-03-30T11:50:46.938Z,51.70
2019-03-30T11:53:35.463Z,51.80
2019-03-30T11:56:23.973Z,51.80
2019-03-30T11:59:12.771Z,51.90
2019-03-30T12:02:01.153Z,51.90
2019-03-30T12:04:49.466Z,51.90
2019-03-30T12:07:37.844Z,51.90
2019-03-30T12:10:27.939Z,52.00
2019-03-30T12:13:16.497Z,52.10
2019-03-30T12:16:04.773Z,52.00
2019-03-30T12:18:53.614Z,51.50
2019-03-30T12:21:41.774Z,51.90
2019-03-30T12:24:30.016Z,52.00
2019-03-30T12:27:18.685Z,52.00
2019-03-30T12:30:09.362Z,52.20
2019-03-30T12:32:57.848Z,52.30
2019-03-30T12:35:46.142Z,52.30
2019-03-30T12:38:34.557Z,52.40
2019-03-30T12:41:23.193Z,52.60
2019-03-30T12:44:11.826Z,52.40
2019-03-30T12:47:00.143Z,52.50
2019-03-30T12:49:48.268Z,52.50
2019-03-30T12:52:37.501Z,52.60
2019-03-30T12:55:26.323Z,52.70
2019-03-30T12:58:15.238Z,52.80
2019-03-30T13:01:03.356Z,52.80
2019-03-30T13:03:51.805Z,52.80
2019-03-30T13:06:40.496Z,52.90
2019-03-30T13:09:29.127Z,52.90
2019-03-30T13:12:17.394Z,52.90
2019-03-30T13:14:48.475Z,52.70
2019-03-30T13:17:20.733Z,52.90
2019-03-30T13:19:52.047Z,53.00
2019-03-30T13:22:22.915Z,53.20
2019-03-30T13:24:53.583Z,53.30
2019-03-30T13:27:24.237Z,53.20
2019-03-30T13:29:55.025Z,53.20
2019-03-30T13:32:26.895Z,53.30
2019-03-30T13:34:57.485Z,53.40
2019-03-30T13:37:29.074Z,53.60
2019-03-30T13:39:59.715Z,54.00
2019-03-30T13:42:30.876Z,53.80
2019-03-30T13:45:03.409Z,53.70
2019-03-30T13:47:51.571Z,53.80
2019-03-30T13:50:40.015Z,54.00
2019-03-30T13:53:28.772Z,54.20
2019-03-30T13:55:59.467Z,54.40
2019-03-30T13:58:30.168Z,54.40
2019-03-30T14:01:00.874Z,54.50
2019-03-30T14:03:31.585Z,54.60
2019-03-30T14:06:02.786Z,54.60
2019-03-30T14:08:33.422Z,54.90
2019-03-30T14:11:04.236Z,55.40
2019-03-30T14:13:34.992Z,55.50
2019-03-30T14:16:23.088Z,55.40
2019-03-30T14:19:11.229Z,55.30
2019-03-30T14:21:41.904Z,55.20
2019-03-30T14:24:12.593Z,55.20
2019-03-30T14:26:43.712Z,55.20
2019-03-30T14:29:31.985Z,55.20
2019-03-30T14:32:20.605Z,55.10
2019-03-30T14:35:09.640Z,55.20
2019-03-30T14:37:57.980Z,55.20
2019-03-30T14:40:46.319Z,55.50
2019-03-30T14:43:34.803Z,55.10
2019-03-30T14:46:23.598Z,55.10
2019-03-30T14:49:11.819Z,55.10
2019-03-30T14:52:00.179Z,55.00
2019-03-30T14:54:53.065Z,55.00
2019-03-30T14:57:39.178Z,55.00
2019-03-30T15:00:27.771Z,55.10
2019-03-30T15:03:16.542Z,55.00
2019-03-30T15:06:07.007Z,55.00
2019-03-30T15:08:55.976Z,55.00
2019-03-30T15:11:44.557Z,55.00
2019-03-30T15:14:33.422Z,55.00
2019-03-30T15:17:22.165Z,54.80
2019-03-30T15:20:12.478Z,55.00
2019-03-30T15:23:00.935Z,55.00
2019-03-30T15:25:49.320Z,55.00
2019-03-30T15:28:38.512Z,55.10
2019-03-30T15:31:27.713Z,55.10
2019-03-30T15:34:16.059Z,55.10
2019-03-30T15:37:04.635Z,55.10
2019-03-30T15:39:52.887Z,55.10
2019-03-30T15:42:41.166Z,55.10
2019-03-30T15:45:29.765Z,55.10
2019-03-30T15:48:18.411Z,55.10
2019-03-30T15:51:06.471Z,55.10
2019-03-30T15:53:54.820Z,55.00
2019-03-30T15:56:43.544Z,55.00
2019-03-30T15:59:31.907Z,54.90
2019-03-30T16:02:20.070Z,54.80
2019-03-30T16:05:09.706Z,54.90
2019-03-30T16:07:57.919Z,54.90
2019-03-30T16:10:46.619Z,55.00
2019-03-30T16:13:35.502Z,55.00
2019-03-30T16:16:23.977Z,55.00
2019-03-30T16:19:12.644Z,54.90
2019-03-30T16:22:01.217Z,54.90
2019-03-30T16:24:49.916Z,54.90
2019-03-30T16:27:39.347Z,54.90
2019-03-30T16:30:13.176Z,54.90
2019-03-30T16:33:01.494Z,54.80
2019-03-30T16:35:50.484Z,54.80
2019-03-30T16:38:39.206Z,54.80
2019-03-30T16:41:27.980Z,54.80
2019-03-30T16:44:16.334Z,54.80
2019-03-30T16:47:05.203Z,54.40
2019-03-30T16:49:54.130Z,54.50
2019-03-30T16:52:42.773Z,54.60
2019-03-30T16:55:31.456Z,54.50
2019-03-30T16:58:19.678Z,54.70
2019-03-30T17:01:08.009Z,54.70
2019-03-30T17:03:56.666Z,54.80
2019-03-30T17:06:45.364Z,54.80
2019-03-30T17:09:34.337Z,54.80
2019-03-30T17:12:22.840Z,54.80
2019-03-30T17:15:12.219Z,54.80
2019-03-30T17:18:00.716Z,54.80
2019-03-30T17:20:49.711Z,54.90
2019-03-30T17:23:39.154Z,54.90
2019-03-30T17:26:27.272Z,54.90
2019-03-30T17:29:15.594Z,55.00
2019-03-30T17:32:04.765Z,54.10
2019-03-30T17:34:53.194Z,54.20
2019-03-30T17:37:41.366Z,54.40
2019-03-30T17:40:29.748Z,54.70
2019-03-30T17:43:18.274Z,54.70
2019-03-30T17:46:07.224Z,54.80
2019-03-30T17:48:55.628Z,55.00
2019-03-30T17:51:44.040Z,55.00
2019-03-30T17:54:32.460Z,55.10
2019-03-30T17:57:21.012Z,55.10
2019-03-30T18:00:12.704Z,55.30
2019-03-30T18:03:01.032Z,55.40
2019-03-30T18:05:49.454Z,55.60
2019-03-30T18:08:37.658Z,55.60
2019-03-30T18:11:26.760Z,55.60
2019-03-30T18:14:14.939Z,55.60
2019-03-30T18:17:03.925Z,55.60
2019-03-30T18:19:52.265Z,55.60
2019-03-30T18:22:40.761Z,55.60
2019-03-30T18:25:29.711Z,55.60
2019-03-30T18:28:27.184Z,55.60
2019-03-30T18:30:50.562Z,55.60
2019-03-30T18:33:38.778Z,55.70
2019-03-30T18:36:29.060Z,55.60
2019-03-30T18:39:18.475Z,55.60
2019-03-30T18:42:07.321Z,55.60
2019-03-30T18:44:56.931Z,55.60
2019-03-30T18:47:45.539Z,55.70
2019-03-30T18:50:33.768Z,55.80
2019-03-30T18:53:22.187Z,56.00
2019-03-30T18:56:10.651Z,56.10
2019-03-30T18:58:59.425Z,56.10
2019-03-30T19:01:47.764Z,56.20
2019-03-30T19:04:36.184Z,56.20
2019-03-30T19:07:24.473Z,56.30
2019-03-30T19:10:13.472Z,56.30
2019-03-30T19:13:01.840Z,56.30
2019-03-30T19:15:49.976Z,56.30
2019-03-30T19:18:38.220Z,56.30
2019-03-30T19:21:26.721Z,56.30
2019-03-30T19:24:15.161Z,56.40
2019-03-30T19:27:04.127Z,56.40
2019-03-30T19:29:52.703Z,56.40
2019-03-30T19:32:41.888Z,56.40
2019-03-30T19:35:30.683Z,56.40
2019-03-30T19:38:19.296Z,56.40
2019-03-30T19:41:08.251Z,56.40
2019-03-30T19:43:56.531Z,56.50
2019-03-30T19:46:45.251Z,56.50
2019-03-30T19:49:34.433Z,56.40
2019-03-30T19:52:22.794Z,56.40
2019-03-30T19:55:11.269Z,56.50
2019-03-30T19:57:59.900Z,56.50
2019-03-30T20:00:48.509Z,56.50
2019-03-30T20:03:37.553Z,56.50
2019-03-30T20:06:25.879Z,56.60
2019-03-30T20:09:14.633Z,56.60
2019-03-30T20:12:02.881Z,56.60
2019-03-30T20:14:51.666Z,56.50
2019-03-30T20:17:40.397Z,56.60
2019-03-30T20:20:28.898Z,56.60
2019-03-30T20:23:17.561Z,56.60
2019-03-30T20:26:06.107Z,56.60
2019-03-30T20:28:54.663Z,56.70
2019-03-30T20:31:25.682Z,56.60
2019-03-30T20:34:15.040Z,56.70
2019-03-30T20:37:03.340Z,56.70
2019-03-30T20:39:53.388Z,56.70
2019-03-30T20:42:42.217Z,56.80
2019-03-30T20:45:31.071Z,56.80
2019-03-30T20:48:19.768Z,56.80
2019-03-30T20:51:08.365Z,56.80
2019-03-30T20:53:56.798Z,56.90
2019-03-30T20:56:46.117Z,56.80
2019-03-30T20:59:40.217Z,56.90
2019-03-30T21:02:24.723Z,57.00
2019-03-30T21:05:14.254Z,56.20
2019-03-30T21:08:02.541Z,56.40
2019-03-30T21:10:50.787Z,56.20
2019-03-30T21:13:39.321Z,56.30
2019-03-30T21:16:28.117Z,56.40
2019-03-30T21:19:16.433Z,56.60
2019-03-30T21:22:05.189Z,56.70
2019-03-30T21:24:53.397Z,56.70
2019-03-30T21:27:41.703Z,56.80
2019-03-30T21:30:30.162Z,56.80
2019-03-30T21:33:18.332Z,56.90
2019-03-30T21:36:06.810Z,56.90
2019-03-30T21:38:55.175Z,57.00
2019-03-30T21:41:43.781Z,57.10
2019-03-30T21:44:32.165Z,57.10
2019-03-30T21:47:20.749Z,57.10
2019-03-30T21:50:09.927Z,57.20
2019-03-30T21:52:59.959Z,57.30
2019-03-30T21:55:48.489Z,57.40
2019-03-30T21:58:36.826Z,57.40
2019-03-30T22:01:25.352Z,57.40
2019-03-30T22:04:13.567Z,57.40
2019-03-30T22:07:02.983Z,57.50
2019-03-30T22:09:52.410Z,57.60
2019-03-30T22:12:43.218Z,57.60
2019-03-30T22:15:32.255Z,57.70
2019-03-30T22:18:21.026Z,57.80
2019-03-30T22:21:09.609Z,57.80
2019-03-30T22:23:57.919Z,57.80
2019-03-30T22:26:46.267Z,57.90
2019-03-30T22:29:35.719Z,58.00
2019-03-30T22:32:24.214Z,58.00
2019-03-30T22:35:13.285Z,58.00
2019-03-30T22:38:01.942Z,58.10
2019-03-30T22:40:50.232Z,58.10
2019-03-30T22:43:39.007Z,58.20
2019-03-30T22:46:27.479Z,58.20
2019-03-30T22:49:16.544Z,58.20
2019-03-30T22:52:05.429Z,58.30
2019-03-30T22:54:54.064Z,58.40
2019-03-30T22:57:42.245Z,58.40
2019-03-30T23:00:41.205Z,58.50
2019-03-30T23:03:29.567Z,58.60
2019-03-30T23:06:18.112Z,58.60
2019-03-30T23:09:11.148Z,58.60
2019-03-30T23:11:57.724Z,58.60
2019-03-30T23:14:47.094Z,58.80
2019-03-30T23:17:35.614Z,58.90
2019-03-30T23:20:23.917Z,58.90
2019-03-30T23:23:12.366Z,58.90
2019-03-30T23:26:00.948Z,58.90
2019-03-30T23:28:49.366Z,59.00
2019-03-30T23:31:38.173Z,59.10
2019-03-30T23:34:26.812Z,59.00
2019-03-30T23:37:15.381Z,59.10
2019-03-30T23:40:05.769Z,59.20
2019-03-30T23:42:53.818Z,59.20
2019-03-30T23:45:42.059Z,59.10
2019-03-30T23:48:30.421Z,59.10
2019-03-30T23:51:18.740Z,59.10
2019-03-30T23:54:10.710Z,59.10
2019-03-30T23:56:59.668Z,59.20
2019-03-30T23:59:47.854Z,59.20
